Weather reports worldwide

Advertisment
Kinbrace, United Kingdom (99016): temperature & dewpoint: 06.11.2019 16:00:00 - 12.11.2019 16:00:00 (GMT)Kinbrace, United Kingdom (99016): wind speed & gusts: 06.11.2019 16:00:00 - 12.11.2019 16:00:00 (GMT)Kinbrace, United Kingdom (99016): wind direction: 06.11.2019 16:00:00 - 12.11.2019 16:00:00 (GMT)Kinbrace, United Kingdom (99016): precipitation: 06.11.2019 16:00:00 - 12.11.2019 16:00:00 (GMT)
Date & Time tt [°C] td [°C] ff [km/h] ff [kn] fx [km/h] fx [kn] dd rr [mm]
12.11.2019 16:00:00 - - - - - - - -
12.11.2019 15:00:00 3,3 1,9 11 6 - - NNE 0,2
12.11.2019 14:00:00 5,3 3,7 16 9 - - N 0,0
12.11.2019 13:00:00 4,8 3,8 13 7 - - NNW 0,0
12.11.2019 12:00:00 4,8 4,1 18 10 - - N 0,2
12.11.2019 11:00:00 4,6 4,0 18 10 - - N 0,0
12.11.2019 10:00:00 4,8 4,3 21 11 - - N 0,2
12.11.2019 09:00:00 5,0 4,3 26 14 - - N 0,0
12.11.2019 08:00:00 5,2 4,4 26 14 - - NNE 0,2
12.11.2019 07:00:00 5,5 4,7 22 12 - - NNE 0,4
12.11.2019 06:00:00 5,8 5,0 22 12 - - N 0,6
12.11.2019 05:00:00 6,1 5,3 21 11 - - NNE 0,2
12.11.2019 04:00:00 6,2 5,0 21 11 - - NNE 0,0
12.11.2019 03:00:00 5,7 4,7 16 9 - - N 0,8
12.11.2019 02:00:00 5,9 5,5 18 10 - - N 0,4
12.11.2019 01:00:00 5,4 4,9 16 9 - - N 2,4
12.11.2019 00:00:00 5,2 4,7 15 8 - - N 0,8
11.11.2019 23:00:00 4,6 4,2 11 6 - - N 0,2
11.11.2019 22:00:00 4,5 3,9 16 9 - - N 0,0
11.11.2019 21:00:00 4,4 3,5 5 3 - - NE 0,0
11.11.2019 20:00:00 5,0 3,5 9 5 - - E 0,0
11.11.2019 19:00:00 5,3 4,5 11 6 - - ENE 0,0
11.11.2019 18:00:00 5,0 4,0 8 4 - - ENE 0,0
11.11.2019 17:00:00 5,1 4,1 13 7 - - NE 0,4
11.11.2019 16:00:00 5,1 4,3 11 6 - - NNE 0,0
11.11.2019 15:00:00 5,6 4,4 5 3 - - E 0,4
11.11.2019 14:00:00 5,6 3,9 9 5 - - E 0,2
11.11.2019 13:00:00 6,5 4,9 8 4 - - ENE 0,2
11.11.2019 12:00:00 6,5 5,0 4 2 - - E 0,6
11.11.2019 11:00:00 6,1 4,8 2 1 - - SSW 0,2
11.11.2019 10:00:00 5,8 4,2 13 7 - - SSE 0,0
11.11.2019 09:00:00 5,2 3,5 8 4 - - SSE 0,0
11.11.2019 08:00:00 4,8 3,3 15 8 - - SE 0,0
11.11.2019 07:00:00 4,8 3,4 18 10 - - SE 0,2
11.11.2019 06:00:00 4,7 3,4 18 10 - - SE 0,6
11.11.2019 05:00:00 4,3 3,0 22 12 - - SE 0,0
11.11.2019 04:00:00 4,3 2,8 26 14 - - SE 0,0
11.11.2019 03:00:00 3,7 2,3 22 12 - - SE 0,2
11.11.2019 02:00:00 3,0 1,9 28 15 - - SE 0,8
11.11.2019 01:00:00 2,4 1,3 26 14 - - SE 0,6
11.11.2019 00:00:00 3,2 0,9 34 18 46 25 SSE 0,0
10.11.2019 23:00:00 4,2 -0,4 31 17 - - SE 0,0
10.11.2019 22:00:00 4,2 -1,5 29 16 - - SE 0,0
10.11.2019 21:00:00 4,2 -1,1 26 14 - - SE 0,0
10.11.2019 20:00:00 3,9 -1,6 28 15 - - SE 0,0
10.11.2019 19:00:00 2,8 -1,8 18 10 - - SE 0,0
10.11.2019 18:00:00 2,9 -1,2 21 11 - - SE 0,0
10.11.2019 17:00:00 3,1 0,0 15 8 - - ESE 0,0
10.11.2019 16:00:00 2,2 0,7 11 6 - - SE 0,0
10.11.2019 15:00:00 2,8 0,2 16 9 - - SE 0,0
10.11.2019 14:00:00 3,2 1,5 4 2 - - ESE 0,0
10.11.2019 13:00:00 3,7 1,0 4 2 - - E 0,2
10.11.2019 12:00:00 4,1 0,8 2 1 - - S 0,0
10.11.2019 11:00:00 -0,1 -0,5 2 1 - - ENE 0,0
10.11.2019 10:00:00 -2,9 -3,3 2 1 - - SE 0,0
10.11.2019 09:00:00 -4,8 -5,2 0 0 - - N 0,0
10.11.2019 08:00:00 -5,3 -6,0 4 2 - - NE 0,0
10.11.2019 07:00:00 -4,7 -5,4 2 1 - - NNW 0,0
10.11.2019 06:00:00 -4,1 -4,7 2 1 - - NNE 0,0
10.11.2019 05:00:00 -3,3 -3,7 2 1 - - NNE 0,0
10.11.2019 04:00:00 -3,3 -3,6 4 2 - - NNW 0,0
10.11.2019 03:00:00 -4,5 -5,0 2 1 - - W 0,0
10.11.2019 02:00:00 -4,6 -5,4 2 1 - - N 0,0
10.11.2019 01:00:00 -3,1 -3,8 2 1 - - N 0,0
10.11.2019 00:00:00 -3,0 -4,1 0 0 - - N 0,0
09.11.2019 23:00:00 -1,2 -3,1 4 2 - - NNW 0,0
09.11.2019 22:00:00 2,1 -0,4 9 5 - - ENE 0,0
09.11.2019 21:00:00 1,3 -1,3 11 6 - - ENE 0,0
09.11.2019 20:00:00 1,1 -1,2 9 5 - - ENE 0,0
09.11.2019 19:00:00 1,1 -0,3 5 3 - - E 0,0
09.11.2019 18:00:00 2,0 0,9 4 2 - - E 0,2
09.11.2019 17:00:00 2,8 1,4 9 5 - - SE 0,0
09.11.2019 16:00:00 3,1 1,2 8 4 - - S 0,0
09.11.2019 15:00:00 4,3 0,5 4 2 - - SE 0,0
09.11.2019 14:00:00 4,1 1,0 16 9 - - SE 0,0
09.11.2019 13:00:00 4,5 0,9 11 6 - - ESE 0,0
09.11.2019 12:00:00 5,1 0,1 9 5 - - SE 0,0
09.11.2019 11:00:00 4,8 0,5 13 7 - - SE 0,2
09.11.2019 10:00:00 3,5 0,8 13 7 - - ESE 0,0
09.11.2019 09:00:00 -2,1 -2,7 5 3 - - SE 0,0
09.11.2019 08:00:00 -1,0 -1,6 5 3 - - ESE 0,0
09.11.2019 07:00:00 -2,6 -3,5 5 3 - - ESE 0,0
09.11.2019 06:00:00 -1,0 -1,6 4 2 - - SE 0,0
09.11.2019 05:00:00 0,0 -0,7 11 6 - - SE 0,0
09.11.2019 04:00:00 -0,1 -0,7 11 6 - - ESE 0,0
09.11.2019 03:00:00 0,5 -0,2 13 7 - - SE 0,0
09.11.2019 02:00:00 1,9 1,2 16 9 - - ESE 0,0
09.11.2019 01:00:00 1,0 0,5 18 10 - - ESE 0,0
09.11.2019 00:00:00 -2,0 -2,3 2 1 - - S 0,0
08.11.2019 23:00:00 -1,7 -2,0 2 1 - - SW 0,0
08.11.2019 22:00:00 -2,0 -2,3 4 2 - - SE 0,0
08.11.2019 21:00:00 -2,4 -2,9 2 1 - - ENE 0,0
08.11.2019 20:00:00 -1,5 -1,8 5 3 - - NW 0,0
08.11.2019 19:00:00 -2,4 -2,9 5 3 - - SE 0,0
08.11.2019 18:00:00 -1,6 -2,2 5 3 - - SSE 0,0
08.11.2019 17:00:00 -0,3 -1,0 4 2 - - E 0,0
08.11.2019 16:00:00 1,6 0,3 4 2 - - SSE 0,0
08.11.2019 15:00:00 3,6 1,1 15 8 - - ESE 0,0
08.11.2019 14:00:00 5,1 1,6 4 2 - - W 0,2
08.11.2019 13:00:00 5,0 2,4 8 4 - - NNW 0,0
08.11.2019 12:00:00 4,1 2,0 4 2 - - SW 0,2
08.11.2019 11:00:00 2,0 1,1 4 2 - - SSW 0,0
08.11.2019 10:00:00 -0,9 -1,2 2 1 - - ESE 0,0
08.11.2019 09:00:00 -3,3 -3,6 0 0 - - N 0,0
08.11.2019 08:00:00 -4,5 -5,0 2 1 - - E 0,0
08.11.2019 07:00:00 -3,2 -3,5 2 1 - - N 0,0
08.11.2019 06:00:00 -3,2 -3,7 4 2 - - SE 0,0
08.11.2019 05:00:00 -2,0 -2,5 4 2 - - ENE 0,0
08.11.2019 04:00:00 -2,3 -2,6 9 5 - - N 0,0
08.11.2019 03:00:00 -3,1 -3,8 2 1 - - N 0,0
08.11.2019 02:00:00 -2,7 -3,5 4 2 - - NE 0,0
08.11.2019 01:00:00 -1,0 -2,1 9 5 - - NNW 0,0
08.11.2019 00:00:00 0,9 0,0 11 6 - - N 0,0
07.11.2019 23:00:00 1,5 1,1 9 5 - - N 0,0
07.11.2019 22:00:00 -0,2 -0,9 8 4 - - NNW 0,0
07.11.2019 21:00:00 1,7 0,9 15 8 - - NNE -
07.11.2019 20:00:00 2,0 0,1 11 6 - - NNE 0,0
07.11.2019 19:00:00 -0,2 -1,1 2 1 - - W 0,0
07.11.2019 18:00:00 0,5 -0,8 9 5 - - NNW 0,0
07.11.2019 17:00:00 3,6 1,5 13 7 - - ENE 0,0
07.11.2019 16:00:00 4,0 0,8 16 9 - - NNE 0,0
07.11.2019 15:00:00 4,8 0,9 11 6 - - NNE 0,0
07.11.2019 14:00:00 6,2 1,1 11 6 - - NE 0,0
07.11.2019 13:00:00 5,5 0,8 11 6 - - NNE 0,0
07.11.2019 12:00:00 5,6 1,7 9 5 - - S 0,0
07.11.2019 11:00:00 5,6 2,0 5 3 - - WNW 0,0
07.11.2019 10:00:00 4,3 1,5 9 5 - - NE 0,0
07.11.2019 09:00:00 3,8 1,1 11 6 - - NE 0,0
07.11.2019 08:00:00 3,6 1,8 16 9 - - ENE 0,0
07.11.2019 07:00:00 3,5 2,2 15 8 - - NE 0,4
07.11.2019 06:00:00 2,9 2,0 11 6 - - NNE 0,0
07.11.2019 05:00:00 2,6 1,4 26 14 - - ENE 0,0
07.11.2019 04:00:00 2,1 1,1 21 11 - - ENE 0,4
07.11.2019 03:00:00 2,2 0,9 8 4 - - ESE 0,0
07.11.2019 02:00:00 1,8 1,4 5 3 - - N 3,2
07.11.2019 01:00:00 1,6 0,8 4 2 - - SE 3,6
07.11.2019 00:00:00 2,1 1,1 11 6 - - E 1,4
06.11.2019 23:00:00 2,2 1,5 11 6 - - SE 0,2
06.11.2019 22:00:00 1,8 0,9 9 5 - - ESE 0,0
06.11.2019 21:00:00 1,9 1,5 4 2 - - W 1,6
06.11.2019 20:00:00 1,3 0,7 4 2 - - NW 0,0
06.11.2019 19:00:00 0,4 -0,3 4 2 - - WNW 0,0
06.11.2019 18:00:00 0,7 -0,1 4 2 - - ESE 0,0
06.11.2019 17:00:00 1,4 0,0 4 2 - - ENE 0,0
06.11.2019 16:00:00 3,4 2,0 9 5 - - E 0,0

tt = temperature
td = dewpoint
ff = wind speed
fx = gusts
dd = wind direction
rr = precipitation

Next stations